Time;durP1;ratioP1;P1;durP2;ratioP2;P2;SDS_P1;SDS_P2;PMS_P1;PMS_P2;Temp;Humidity;BMP_temperature;BMP_pressure;BME280_temperature;BME280_humidity;BME280_pressure;Samples;Min_cycle;Max_cycle;Signal;HPM_P1;HPM_P2
2023/06/09 00:00:10;;;;;;;;;;;;;;;;;;5073919;28;19916;-68
2023/06/09 00:02:35;;;;;;;;;;;;;;;;;;5075268;28;20018;-69
2023/06/09 00:05:00;;;;;;;;;;;;;;;;;;5074939;28;20359;-68
2023/06/09 00:07:27;;;;;;;;;;;;;;;;;;5074975;28;19926;-69
2023/06/09 00:09:52;;;;;;;;;;;;;;;;;;5075061;28;19962;-69
2023/06/09 00:12:17;;;;;;;;;;;;;;;;;;5074851;28;20372;-68
2023/06/09 00:14:42;;;;;;;;;;;;;;;;;;5072208;28;19923;-69
2023/06/09 00:17:08;;;;;;;;;;;;;;;;;;5074826;28;19912;-70
2023/06/09 00:19:34;;;;;;;;;;;;;;;;;;5073851;28;19908;-69
2023/06/09 00:22:01;;;;;;;;;;;;;;;;;;5075228;28;19950;-69
2023/06/09 00:24:26;;;;;;;;;;;;;;;;;;5074860;28;20077;-70
2023/06/09 00:26:51;;;;;;;;;;;;;;;;;;5075088;28;20368;-69
2023/06/09 00:29:16;;;;;;;;;;;;;;;;;;5073374;28;19924;-69
2023/06/09 00:31:42;;;;;;;;;;;;;;;;;;5068208;28;19999;-69
2023/06/09 00:34:07;;;;;;;;;;;;;;;;;;5036585;28;19920;-69
2023/06/09 00:36:32;;;;;;;;;;;;;;;;;;5036823;28;19908;-69
2023/06/09 00:38:57;;;;;;;;;;;;;;;;;;5054611;28;19921;-69
2023/06/09 00:41:23;;;;;;;;;;;;;;;;;;5054731;28;20452;-69
2023/06/09 00:43:48;;;;;;;;;;;;;;;;;;5054521;28;19912;-68
2023/06/09 00:46:14;;;;;;;;;;;;;;;;;;5068883;28;19912;-68
2023/06/09 00:48:39;;;;;;;;;;;;;;;;;;5054704;28;19913;-68
2023/06/09 00:51:05;;;;;;;;;;;;;;;;;;5054358;28;19970;-69
2023/06/09 00:53:31;;;;;;;;;;;;;;;;;;5072078;28;19913;-70
2023/06/09 00:55:56;;;;;;;;;;;;;;;;;;5072267;28;19942;-69
2023/06/09 00:58:21;;;;;;;;;;;;;;;;;;5072549;28;20464;-69
2023/06/09 01:00:47;;;;;;;;;;;;;;;;;;5070984;28;19909;-68
2023/06/09 01:03:12;;;;;;;;;;;;;;;;;;5071330;28;19919;-69
2023/06/09 01:05:39;;;;;;;;;;;;;;;;;;5073424;28;19916;-69
2023/06/09 01:08:04;;;;;;;;;;;;;;;;;;5074214;28;19912;-68
2023/06/09 01:10:29;;;;;;;;;;;;;;;;;;5074245;28;19923;-70
2023/06/09 01:12:55;;;;;;;;;;;;;;;;;;5056209;28;20352;-68
2023/06/09 01:15:20;;;;;;;;;;;;;;;;;;5072414;28;19912;-68
2023/06/09 01:17:45;;;;;;;;;;;;;;;;;;5073746;28;19912;-68
2023/06/09 01:20:12;;;;;;;;;;;;;;;;;;5055840;28;19913;-68
2023/06/09 01:22:37;;;;;;;;;;;;;;;;;;5073755;28;19919;-67
2023/06/09 01:25:03;;;;;;;;;;;;;;;;;;5056251;28;19991;-67
2023/06/09 01:27:29;;;;;;;;;;;;;;;;;;5073576;28;20282;-68
2023/06/09 01:29:55;;;;;;;;;;;;;;;;;;5072444;28;19916;-69
2023/06/09 01:32:20;;;;;;;;;;;;;;;;;;5073871;28;19908;-69
2023/06/09 01:34:45;;;;;;;;;;;;;;;;;;5073510;28;19917;-69
2023/06/09 01:37:11;;;;;;;;;;;;;;;;;;5054053;28;19913;-69
2023/06/09 01:39:36;;;;;;;;;;;;;;;;;;5055685;28;20014;-69
2023/06/09 01:42:02;;;;;;;;;;;;;;;;;;5055587;28;20031;-69
2023/06/09 01:44:27;;;;;;;;;;;;;;;;;;5038972;28;20419;-68
2023/06/09 01:46:52;;;;;;;;;;;;;;;;;;5044360;28;19917;-69
2023/06/09 01:49:18;;;;;;;;;;;;;;;;;;5035618;28;19928;-68
2023/06/09 01:51:43;;;;;;;;;;;;;;;;;;5035773;28;19983;-68
2023/06/09 01:54:09;;;;;;;;;;;;;;;;;;5053544;28;20275;-68
2023/06/09 01:56:34;;;;;;;;;;;;;;;;;;5053356;28;19920;-68
2023/06/09 01:58:59;;;;;;;;;;;;;;;;;;5036869;28;19916;-68
2023/06/09 02:01:25;;;;;;;;;;;;;;;;;;5055291;28;19912;-67
2023/06/09 02:03:52;;;;;;;;;;;;;;;;;;5071788;28;19919;-68
2023/06/09 02:06:19;;;;;;;;;;;;;;;;;;5072291;28;19913;-68
2023/06/09 02:08:44;;;;;;;;;;;;;;;;;;5055693;28;20296;-68
2023/06/09 02:11:10;;;;;;;;;;;;;;;;;;5073175;28;19963;-67
2023/06/09 02:13:35;;;;;;;;;;;;;;;;;;5055078;28;19919;-68
2023/06/09 02:16:00;;;;;;;;;;;;;;;;;;5071443;28;20268;-68
2023/06/09 02:18:26;;;;;;;;;;;;;;;;;;5071720;28;19908;-68
2023/06/09 02:20:52;;;;;;;;;;;;;;;;;;5071050;28;19978;-68
2023/06/09 02:23:17;;;;;;;;;;;;;;;;;;5052970;28;19948;-69
2023/06/09 02:25:42;;;;;;;;;;;;;;;;;;5070919;28;20383;-68
2023/06/09 02:28:08;;;;;;;;;;;;;;;;;;5071272;28;19912;-68
2023/06/09 02:30:34;;;;;;;;;;;;;;;;;;5067468;28;19917;-69
2023/06/09 02:33:00;;;;;;;;;;;;;;;;;;5070834;28;19920;-68
2023/06/09 02:35:25;;;;;;;;;;;;;;;;;;5051885;28;19916;-68
2023/06/09 02:37:52;;;;;;;;;;;;;;;;;;5054944;28;19958;-68
2023/06/09 02:40:17;;;;;;;;;;;;;;;;;;5054955;28;20331;-67
2023/06/09 02:42:42;;;;;;;;;;;;;;;;;;5056190;28;19962;-67
2023/06/09 02:45:08;;;;;;;;;;;;;;;;;;5075007;28;19923;-67
2023/06/09 02:47:33;;;;;;;;;;;;;;;;;;5076226;28;19957;-67
2023/06/09 02:49:59;;;;;;;;;;;;;;;;;;5057902;28;19924;-67
2023/06/09 02:52:28;;;;;;;;;;;;;;;;;;5076154;28;20376;-67
2023/06/09 02:54:53;;;;;;;;;;;;;;;;;;5058439;28;19904;-67
2023/06/09 02:57:18;;;;;;;;;;;;;;;;;;5057800;28;19912;-68
2023/06/09 02:59:44;;;;;;;;;;;;;;;;;;5073856;28;19913;-68
2023/06/09 03:02:11;;;;;;;;;;;;;;;;;;5073342;28;19912;-70
2023/06/09 03:04:37;;;;;;;;;;;;;;;;;;5065744;28;20389;-68
2023/06/09 03:07:03;;;;;;;;;;;;;;;;;;5051115;28;19967;-69
2023/06/09 03:09:29;;;;;;;;;;;;;;;;;;5044302;28;19962;-68
2023/06/09 03:12:00;;;;;;;;;;;;;;;;;;5048331;28;20378;-70
2023/06/09 03:14:25;;;;;;;;;;;;;;;;;;5068052;28;19916;-68
2023/06/09 03:16:52;;;;;;;;;;;;;;;;;;5053319;28;19916;-70
2023/06/09 03:19:17;;;;;;;;;;;;;;;;;;5059796;28;19912;-70
2023/06/09 03:21:43;;;;;;;;;;;;;;;;;;5045411;28;19958;-68
2023/06/09 03:24:09;;;;;;;;;;;;;;;;;;5077949;28;19908;-68
2023/06/09 03:26:35;;;;;;;;;;;;;;;;;;5071627;28;19913;-68
2023/06/09 03:29:01;;;;;;;;;;;;;;;;;;5054093;28;20405;-68
2023/06/09 03:31:26;;;;;;;;;;;;;;;;;;5053000;28;19999;-68
2023/06/09 03:33:52;;;;;;;;;;;;;;;;;;5051652;28;20346;-67
2023/06/09 03:36:17;;;;;;;;;;;;;;;;;;5053553;28;19912;-68
2023/06/09 03:38:43;;;;;;;;;;;;;;;;;;5071398;28;19938;-68
2023/06/09 03:41:08;;;;;;;;;;;;;;;;;;5061497;28;19924;-70
2023/06/09 03:43:33;;;;;;;;;;;;;;;;;;5049916;28;19912;-70
2023/06/09 03:45:59;;;;;;;;;;;;;;;;;;5050552;28;19970;-69
2023/06/09 03:48:24;;;;;;;;;;;;;;;;;;5034262;28;20334;-69
2023/06/09 03:50:50;;;;;;;;;;;;;;;;;;5051146;28;20352;-69
2023/06/09 03:53:16;;;;;;;;;;;;;;;;;;5056007;28;19971;-69
2023/06/09 03:55:41;;;;;;;;;;;;;;;;;;5068462;28;20008;-69
2023/06/09 03:58:08;;;;;;;;;;;;;;;;;;5051166;28;19912;-69
2023/06/09 04:00:34;;;;;;;;;;;;;;;;;;5050523;28;20329;-70
2023/06/09 04:02:59;;;;;;;;;;;;;;;;;;5050930;28;19908;-70
2023/06/09 04:05:25;;;;;;;;;;;;;;;;;;5069037;28;19966;-69
2023/06/09 04:07:52;;;;;;;;;;;;;;;;;;5051079;28;19912;-71
2023/06/09 04:10:17;;;;;;;;;;;;;;;;;;5051431;28;20291;-69
2023/06/09 04:12:42;;;;;;;;;;;;;;;;;;5052933;28;19912;-69
2023/06/09 04:15:09;;;;;;;;;;;;;;;;;;5052874;28;19916;-69
2023/06/09 04:17:39;;;;;;;;;;;;;;;;;;5052647;28;19954;-70
2023/06/09 04:20:07;;;;;;;;;;;;;;;;;;5053002;28;19924;-69
2023/06/09 04:22:33;;;;;;;;;;;;;;;;;;5053029;28;19920;-69
2023/06/09 04:24:58;;;;;;;;;;;;;;;;;;5052999;28;20364;-70
2023/06/09 04:27:25;;;;;;;;;;;;;;;;;;5071061;28;19912;-70
2023/06/09 04:29:50;;;;;;;;;;;;;;;;;;5052905;28;20435;-69
2023/06/09 04:32:16;;;;;;;;;;;;;;;;;;5070994;28;20054;-69
2023/06/09 04:34:42;;;;;;;;;;;;;;;;;;5058963;28;19912;-69
2023/06/09 04:37:12;;;;;;;;;;;;;;;;;;5052806;28;19995;-69
2023/06/09 04:39:37;;;;;;;;;;;;;;;;;;5055794;28;19954;-69
2023/06/09 04:42:05;;;;;;;;;;;;;;;;;;5052275;28;20387;-70
2023/06/09 04:44:32;;;;;;;;;;;;;;;;;;5055012;28;19912;-70
2023/06/09 04:46:59;;;;;;;;;;;;;;;;;;5051136;28;19995;-69
2023/06/09 04:49:25;;;;;;;;;;;;;;;;;;5052844;28;20007;-68
2023/06/09 04:51:50;;;;;;;;;;;;;;;;;;5052607;28;19908;-71
2023/06/09 04:54:25;;;;;;;;;;;;;;;;;;5070356;28;20326;-69
2023/06/09 04:56:57;;;;;;;;;;;;;;;;;;5032530;28;19967;-69
2023/06/09 04:59:23;;;;;;;;;;;;;;;;;;5032265;28;19916;-69
2023/06/09 05:01:48;;;;;;;;;;;;;;;;;;5057219;28;20269;-69
2023/06/09 05:04:13;;;;;;;;;;;;;;;;;;5052239;28;19923;-68
2023/06/09 05:06:40;;;;;;;;;;;;;;;;;;5051845;28;20011;-69
2023/06/09 05:09:06;;;;;;;;;;;;;;;;;;5051932;28;20019;-69
2023/06/09 05:11:32;;;;;;;;;;;;;;;;;;5055739;28;19919;-69
2023/06/09 05:13:57;;;;;;;;;;;;;;;;;;5059169;28;19917;-69
2023/06/09 05:16:25;;;;;;;;;;;;;;;;;;5051867;28;20122;-69
2023/06/09 05:18:51;;;;;;;;;;;;;;;;;;5051847;28;19958;-69
2023/06/09 05:21:16;;;;;;;;;;;;;;;;;;5051860;28;20287;-69
2023/06/09 05:23:41;;;;;;;;;;;;;;;;;;5051946;28;19908;-71
2023/06/09 05:26:07;;;;;;;;;;;;;;;;;;5052059;28;20291;-68
2023/06/09 05:28:32;;;;;;;;;;;;;;;;;;5052117;28;19917;-68
2023/06/09 05:30:57;;;;;;;;;;;;;;;;;;5070124;28;20364;-69
2023/06/09 05:33:22;;;;;;;;;;;;;;;;;;5051647;28;19912;-69
2023/06/09 05:35:48;;;;;;;;;;;;;;;;;;5069066;28;19961;-69
2023/06/09 05:38:15;;;;;;;;;;;;;;;;;;5050106;28;19919;-69
2023/06/09 05:40:41;;;;;;;;;;;;;;;;;;5067795;28;19912;-69
2023/06/09 05:43:06;;;;;;;;;;;;;;;;;;5058743;28;19973;-71
2023/06/09 05:45:31;;;;;;;;;;;;;;;;;;5047602;28;19971;-69
2023/06/09 05:47:57;;;;;;;;;;;;;;;;;;5066452;28;20034;-69
2023/06/09 05:50:22;;;;;;;;;;;;;;;;;;5065662;28;19962;-69
2023/06/09 05:52:47;;;;;;;;;;;;;;;;;;5069262;28;19924;-69
2023/06/09 05:55:12;;;;;;;;;;;;;;;;;;5069329;28;19963;-68
2023/06/09 05:57:40;;;;;;;;;;;;;;;;;;5069487;28;19912;-69
2023/06/09 06:00:09;;;;;;;;;;;;;;;;;;5067649;28;19919;-69
2023/06/09 06:02:42;;;;;;;;;;;;;;;;;;5064810;28;19924;-69
2023/06/09 06:05:08;;;;;;;;;;;;;;;;;;5066976;28;19963;-68
2023/06/09 06:07:33;;;;;;;;;;;;;;;;;;5067148;28;19916;-68
2023/06/09 06:09:59;;;;;;;;;;;;;;;;;;5068046;28;19916;-71
2023/06/09 06:12:24;;;;;;;;;;;;;;;;;;5050752;28;19969;-69
2023/06/09 06:14:50;;;;;;;;;;;;;;;;;;5068139;28;19916;-70
2023/06/09 06:17:15;;;;;;;;;;;;;;;;;;5084648;28;19919;-69
2023/06/09 06:19:40;;;;;;;;;;;;;;;;;;5068877;28;20011;-68
2023/06/09 06:22:05;;;;;;;;;;;;;;;;;;5066179;28;20446;-68
2023/06/09 06:24:31;;;;;;;;;;;;;;;;;;5068055;28;19939;-68
2023/06/09 06:26:56;;;;;;;;;;;;;;;;;;5068626;28;19908;-70
2023/06/09 06:29:22;;;;;;;;;;;;;;;;;;5068132;28;19916;-70
2023/06/09 06:31:50;;;;;;;;;;;;;;;;;;5068622;28;19915;-70
2023/06/09 06:34:15;;;;;;;;;;;;;;;;;;5051178;28;19913;-71
2023/06/09 06:36:40;;;;;;;;;;;;;;;;;;5068089;28;20463;-71
2023/06/09 06:39:06;;;;;;;;;;;;;;;;;;5068170;28;19924;-70
2023/06/09 06:41:31;;;;;;;;;;;;;;;;;;5067460;28;19917;-72
2023/06/09 06:43:57;;;;;;;;;;;;;;;;;;5068614;28;20375;-71
2023/06/09 06:46:22;;;;;;;;;;;;;;;;;;5067506;28;19912;-72
2023/06/09 06:48:47;;;;;;;;;;;;;;;;;;5068197;28;20375;-71
2023/06/09 06:51:12;;;;;;;;;;;;;;;;;;5049657;28;19985;-71
2023/06/09 06:53:38;;;;;;;;;;;;;;;;;;5068460;28;19921;-71
2023/06/09 06:56:03;;;;;;;;;;;;;;;;;;5067978;28;19913;-71
2023/06/09 06:58:28;;;;;;;;;;;;;;;;;;5068966;28;19913;-70
2023/06/09 07:00:55;;;;;;;;;;;;;;;;;;5066269;28;19927;-70
2023/06/09 07:03:20;;;;;;;;;;;;;;;;;;5068334;28;20003;-70
2023/06/09 07:05:45;;;;;;;;;;;;;;;;;;5066612;28;19955;-69
2023/06/09 07:08:11;;;;;;;;;;;;;;;;;;5067689;28;19970;-70
2023/06/09 07:10:36;;;;;;;;;;;;;;;;;;5068088;28;19916;-70
2023/06/09 07:13:01;;;;;;;;;;;;;;;;;;5068126;28;20394;-69
2023/06/09 07:15:27;;;;;;;;;;;;;;;;;;5067664;28;20648;-71
2023/06/09 07:17:52;;;;;;;;;;;;;;;;;;5068577;28;19912;-70
2023/06/09 07:20:17;;;;;;;;;;;;;;;;;;5067727;28;19946;-70
2023/06/09 07:22:43;;;;;;;;;;;;;;;;;;5067796;28;19954;-70
2023/06/09 07:25:08;;;;;;;;;;;;;;;;;;5067963;28;20053;-79
2023/06/09 07:27:33;;;;;;;;;;;;;;;;;;5067961;28;19912;-77
2023/06/09 07:29:58;;;;;;;;;;;;;;;;;;5070965;28;19916;-79
2023/06/09 07:32:24;;;;;;;;;;;;;;;;;;5071485;28;19923;-77
2023/06/09 07:34:50;;;;;;;;;;;;;;;;;;5071382;28;19916;-78
2023/06/09 07:37:15;;;;;;;;;;;;;;;;;;5071321;28;19999;-77
2023/06/09 07:39:41;;;;;;;;;;;;;;;;;;5076643;28;20390;-75
2023/06/09 07:42:06;;;;;;;;;;;;;;;;;;5089984;28;19923;-77
2023/06/09 07:44:31;;;;;;;;;;;;;;;;;;5071173;28;19919;-75
2023/06/09 07:46:56;;;;;;;;;;;;;;;;;;5070812;28;19916;-79
2023/06/09 07:49:22;;;;;;;;;;;;;;;;;;5071284;28;19997;-78
2023/06/09 07:51:49;;;;;;;;;;;;;;;;;;5053411;28;19916;-77
2023/06/09 07:54:14;;;;;;;;;;;;;;;;;;5070917;28;19920;-79
2023/06/09 07:56:40;;;;;;;;;;;;;;;;;;5070351;28;19985;-74
2023/06/09 07:59:05;;;;;;;;;;;;;;;;;;5079807;28;19905;-75
2023/06/09 08:01:32;;;;;;;;;;;;;;;;;;5075572;28;19983;-75
2023/06/09 08:03:57;;;;;;;;;;;;;;;;;;5076482;28;19928;-76
2023/06/09 08:06:23;;;;;;;;;;;;;;;;;;5057659;28;19916;-77
2023/06/09 08:08:49;;;;;;;;;;;;;;;;;;5067924;28;20003;-79
2023/06/09 08:11:14;;;;;;;;;;;;;;;;;;5070667;28;19917;-78
2023/06/09 08:13:40;;;;;;;;;;;;;;;;;;5070758;28;19965;-78
2023/06/09 08:16:05;;;;;;;;;;;;;;;;;;5070950;28;19912;-77
2023/06/09 08:18:30;;;;;;;;;;;;;;;;;;5070311;28;19917;-78
2023/06/09 08:20:56;;;;;;;;;;;;;;;;;;5064025;28;20116;-77
2023/06/09 08:23:22;;;;;;;;;;;;;;;;;;5070747;28;19958;-74
2023/06/09 08:25:47;;;;;;;;;;;;;;;;;;5070851;28;19962;-78
2023/06/09 08:28:12;;;;;;;;;;;;;;;;;;5052367;28;19959;-76
2023/06/09 08:30:38;;;;;;;;;;;;;;;;;;5070010;28;19924;-77
2023/06/09 08:33:03;;;;;;;;;;;;;;;;;;5070444;28;19920;-77
2023/06/09 08:35:31;;;;;;;;;;;;;;;;;;5070719;28;20351;-77
2023/06/09 08:37:57;;;;;;;;;;;;;;;;;;5070319;28;20360;-77
2023/06/09 08:40:22;;;;;;;;;;;;;;;;;;5069589;28;19912;-77
2023/06/09 08:42:48;;;;;;;;;;;;;;;;;;5070081;28;19917;-76
2023/06/09 08:45:14;;;;;;;;;;;;;;;;;;5070002;28;20379;-78
2023/06/09 08:47:39;;;;;;;;;;;;;;;;;;5069720;28;19952;-76
2023/06/09 08:50:04;;;;;;;;;;;;;;;;;;5070007;28;20276;-78
2023/06/09 08:52:30;;;;;;;;;;;;;;;;;;5070148;28;20186;-77
2023/06/09 08:54:55;;;;;;;;;;;;;;;;;;5069823;28;19916;-77
2023/06/09 08:57:21;;;;;;;;;;;;;;;;;;5069944;28;19916;-75
2023/06/09 08:59:46;;;;;;;;;;;;;;;;;;5070158;28;19965;-76
2023/06/09 09:02:11;;;;;;;;;;;;;;;;;;5069757;28;19916;-78
2023/06/09 09:04:38;;;;;;;;;;;;;;;;;;5069893;28;19955;-77
2023/06/09 09:07:03;;;;;;;;;;;;;;;;;;5069764;28;19999;-76
2023/06/09 09:09:29;;;;;;;;;;;;;;;;;;5055709;28;20405;-77
2023/06/09 09:11:54;;;;;;;;;;;;;;;;;;5050033;28;19913;-78
2023/06/09 09:14:19;;;;;;;;;;;;;;;;;;5049437;28;19916;-77
2023/06/09 09:16:45;;;;;;;;;;;;;;;;;;5067443;28;19952;-77
2023/06/09 09:19:10;;;;;;;;;;;;;;;;;;5049447;28;20195;-75
2023/06/09 09:21:37;;;;;;;;;;;;;;;;;;5067382;28;19999;-78
2023/06/09 09:24:04;;;;;;;;;;;;;;;;;;5068511;28;19912;-79
2023/06/09 09:26:29;;;;;;;;;;;;;;;;;;5067896;28;19915;-77
2023/06/09 09:28:55;;;;;;;;;;;;;;;;;;5061306;28;20002;-74
2023/06/09 09:31:21;;;;;;;;;;;;;;;;;;5057291;28;19923;-76
2023/06/09 09:33:47;;;;;;;;;;;;;;;;;;5050122;28;19966;-77
2023/06/09 09:36:12;;;;;;;;;;;;;;;;;;5036169;28;19917;-78
2023/06/09 09:38:37;;;;;;;;;;;;;;;;;;5068242;28;19920;-76
2023/06/09 09:41:03;;;;;;;;;;;;;;;;;;5069066;28;19959;-79
2023/06/09 09:43:28;;;;;;;;;;;;;;;;;;5069267;28;19917;-80
2023/06/09 09:45:53;;;;;;;;;;;;;;;;;;5069094;28;20367;-76
2023/06/09 09:48:21;;;;;;;;;;;;;;;;;;5068811;28;19978;-79
2023/06/09 09:50:46;;;;;;;;;;;;;;;;;;5073986;28;19916;-78
2023/06/09 09:53:11;;;;;;;;;;;;;;;;;;5072290;28;19981;-80
2023/06/09 09:55:37;;;;;;;;;;;;;;;;;;5067752;28;20540;-77
2023/06/09 09:58:02;;;;;;;;;;;;;;;;;;5068746;28;19913;-78
2023/06/09 10:00:28;;;;;;;;;;;;;;;;;;5070482;28;19944;-75
2023/06/09 10:02:53;;;;;;;;;;;;;;;;;;5068012;28;20371;-77
2023/06/09 10:05:19;;;;;;;;;;;;;;;;;;5066815;28;19920;-78
2023/06/09 10:07:44;;;;;;;;;;;;;;;;;;5069187;28;20005;-76
2023/06/09 10:10:10;;;;;;;;;;;;;;;;;;5064993;28;19913;-76
2023/06/09 10:12:35;;;;;;;;;;;;;;;;;;5066071;28;20431;-74
2023/06/09 10:15:01;;;;;;;;;;;;;;;;;;5070469;28;19912;-78
2023/06/09 10:17:26;;;;;;;;;;;;;;;;;;5072928;28;20276;-75
2023/06/09 10:19:51;;;;;;;;;;;;;;;;;;5066723;28;20336;-77
2023/06/09 10:22:16;;;;;;;;;;;;;;;;;;5066609;28;19916;-77
2023/06/09 10:24:42;;;;;;;;;;;;;;;;;;5066469;28;19973;-76
2023/06/09 10:27:07;;;;;;;;;;;;;;;;;;5066942;28;20340;-76
2023/06/09 10:29:32;;;;;;;;;;;;;;;;;;5048906;28;20046;-75
2023/06/09 10:31:58;;;;;;;;;;;;;;;;;;5065860;28;19928;-77
2023/06/09 10:34:23;;;;;;;;;;;;;;;;;;5066248;28;20411;-76
2023/06/09 10:36:48;;;;;;;;;;;;;;;;;;5066578;28;19916;-76
2023/06/09 10:39:13;;;;;;;;;;;;;;;;;;5058064;28;19922;-77
2023/06/09 10:41:39;;;;;;;;;;;;;;;;;;5053582;28;19913;-75
2023/06/09 10:44:04;;;;;;;;;;;;;;;;;;5061266;28;20372;-77
2023/06/09 10:46:30;;;;;;;;;;;;;;;;;;5046059;28;20149;-75
2023/06/09 10:48:55;;;;;;;;;;;;;;;;;;5046220;28;20284;-78
2023/06/09 10:51:20;;;;;;;;;;;;;;;;;;5046164;28;19920;-77
2023/06/09 10:53:45;;;;;;;;;;;;;;;;;;5046111;28;19958;-78
2023/06/09 10:56:11;;;;;;;;;;;;;;;;;;5045966;28;19917;-74
2023/06/09 10:58:39;;;;;;;;;;;;;;;;;;5046273;28;20302;-77
2023/06/09 11:01:07;;;;;;;;;;;;;;;;;;5046301;28;20283;-76
2023/06/09 11:03:32;;;;;;;;;;;;;;;;;;5056813;28;19916;-76
2023/06/09 11:05:58;;;;;;;;;;;;;;;;;;5069674;28;20290;-77
2023/06/09 11:08:23;;;;;;;;;;;;;;;;;;5068759;28;19908;-76
2023/06/09 11:10:48;;;;;;;;;;;;;;;;;;5069455;28;20332;-76
2023/06/09 11:13:14;;;;;;;;;;;;;;;;;;5058416;28;19963;-75
2023/06/09 11:15:39;;;;;;;;;;;;;;;;;;5049807;28;20379;-76
2023/06/09 11:18:04;;;;;;;;;;;;;;;;;;5049527;28;20073;-76
2023/06/09 11:20:32;;;;;;;;;;;;;;;;;;5049068;28;19913;-76
2023/06/09 11:22:59;;;;;;;;;;;;;;;;;;5066185;28;20347;-76
2023/06/09 11:25:26;;;;;;;;;;;;;;;;;;5069793;28;19962;-77
2023/06/09 11:27:51;;;;;;;;;;;;;;;;;;5069774;28;19962;-76
2023/06/09 11:30:18;;;;;;;;;;;;;;;;;;5069154;28;19924;-77
2023/06/09 11:32:44;;;;;;;;;;;;;;;;;;5068592;28;20011;-74
2023/06/09 11:35:09;;;;;;;;;;;;;;;;;;5069847;28;20003;-76
2023/06/09 11:37:36;;;;;;;;;;;;;;;;;;5069183;28;20389;-77
2023/06/09 11:40:01;;;;;;;;;;;;;;;;;;5051158;28;20679;-76
2023/06/09 11:42:26;;;;;;;;;;;;;;;;;;5069393;28;19916;-76
2023/06/09 11:44:52;;;;;;;;;;;;;;;;;;5069116;28;19959;-75
2023/06/09 11:47:17;;;;;;;;;;;;;;;;;;5068634;28;19912;-78
2023/06/09 11:49:42;;;;;;;;;;;;;;;;;;5069025;28;20248;-77
2023/06/09 11:52:07;;;;;;;;;;;;;;;;;;5070001;28;19916;-76
2023/06/09 11:54:33;;;;;;;;;;;;;;;;;;5069035;28;19913;-77
2023/06/09 11:56:58;;;;;;;;;;;;;;;;;;5068677;28;19927;-76
2023/06/09 11:59:23;;;;;;;;;;;;;;;;;;5068013;28;20265;-78
2023/06/09 12:01:49;;;;;;;;;;;;;;;;;;5069047;28;20377;-76
2023/06/09 12:04:14;;;;;;;;;;;;;;;;;;5068704;28;19916;-75
2023/06/09 12:06:39;;;;;;;;;;;;;;;;;;5068823;28;19912;-77
2023/06/09 12:09:04;;;;;;;;;;;;;;;;;;5068428;28;20371;-78
2023/06/09 12:11:30;;;;;;;;;;;;;;;;;;5068785;28;19924;-78
2023/06/09 12:13:55;;;;;;;;;;;;;;;;;;5068773;28;20017;-80
2023/06/09 12:16:23;;;;;;;;;;;;;;;;;;5066839;28;19943;-78
2023/06/09 12:18:49;;;;;;;;;;;;;;;;;;5067599;28;19920;-75
2023/06/09 12:21:14;;;;;;;;;;;;;;;;;;5068439;28;20261;-76
2023/06/09 12:23:39;;;;;;;;;;;;;;;;;;5071306;28;19908;-79
2023/06/09 12:26:05;;;;;;;;;;;;;;;;;;5067357;28;20009;-77
2023/06/09 12:28:30;;;;;;;;;;;;;;;;;;5067860;28;20394;-75
2023/06/09 12:30:56;;;;;;;;;;;;;;;;;;5067364;28;20709;-77
2023/06/09 12:33:21;;;;;;;;;;;;;;;;;;5067902;28;19916;-79
2023/06/09 12:35:47;;;;;;;;;;;;;;;;;;5068137;28;19909;-77
2023/06/09 12:38:12;;;;;;;;;;;;;;;;;;5065367;28;19912;-75
2023/06/09 12:40:37;;;;;;;;;;;;;;;;;;5048449;28;20023;-79
2023/06/09 12:43:02;;;;;;;;;;;;;;;;;;5049502;28;19916;-74
2023/06/09 12:45:30;;;;;;;;;;;;;;;;;;5047400;28;19928;-78
2023/06/09 12:47:55;;;;;;;;;;;;;;;;;;5062367;28;19916;-76
2023/06/09 12:50:20;;;;;;;;;;;;;;;;;;5067826;28;19923;-80
2023/06/09 12:52:46;;;;;;;;;;;;;;;;;;5067825;28;19969;-74
2023/06/09 12:55:11;;;;;;;;;;;;;;;;;;5067355;28;19922;-80
2023/06/09 12:57:36;;;;;;;;;;;;;;;;;;5067102;28;19963;-75
2023/06/09 13:00:04;;;;;;;;;;;;;;;;;;5068259;28;19913;-79
2023/06/09 13:02:29;;;;;;;;;;;;;;;;;;5067609;28;19916;-76
2023/06/09 13:04:54;;;;;;;;;;;;;;;;;;5077750;28;19902;-75
2023/06/09 13:07:20;;;;;;;;;;;;;;;;;;5069642;28;19966;-80
2023/06/09 13:09:45;;;;;;;;;;;;;;;;;;5070577;28;19917;-79
2023/06/09 13:12:10;;;;;;;;;;;;;;;;;;5069026;28;19912;-76
2023/06/09 13:14:35;;;;;;;;;;;;;;;;;;5068268;28;19912;-78
2023/06/09 13:17:01;;;;;;;;;;;;;;;;;;5067560;28;20039;-78
2023/06/09 13:19:26;;;;;;;;;;;;;;;;;;5068173;28;20015;-76
2023/06/09 13:21:51;;;;;;;;;;;;;;;;;;5067232;28;19917;-80
2023/06/09 13:24:17;;;;;;;;;;;;;;;;;;5068174;28;19909;-77
2023/06/09 13:26:43;;;;;;;;;;;;;;;;;;5067721;28;19919;-80
2023/06/09 13:29:09;;;;;;;;;;;;;;;;;;5067509;28;19916;-77
2023/06/09 13:31:34;;;;;;;;;;;;;;;;;;5067696;28;20372;-82
2023/06/09 13:33:59;;;;;;;;;;;;;;;;;;5057729;28;19908;-75
2023/06/09 13:36:25;;;;;;;;;;;;;;;;;;5055744;28;20025;-78
2023/06/09 13:38:50;;;;;;;;;;;;;;;;;;5059807;28;20024;-76
2023/06/09 13:41:16;;;;;;;;;;;;;;;;;;5064956;28;19916;-77
2023/06/09 13:43:41;;;;;;;;;;;;;;;;;;5067726;28;19912;-81
2023/06/09 13:46:07;;;;;;;;;;;;;;;;;;5071478;28;20378;-80
2023/06/09 13:48:33;;;;;;;;;;;;;;;;;;5066861;28;19944;-78
2023/06/09 13:50:58;;;;;;;;;;;;;;;;;;5067216;28;19989;-80
2023/06/09 13:53:24;;;;;;;;;;;;;;;;;;5066560;28;20271;-77
2023/06/09 13:55:49;;;;;;;;;;;;;;;;;;5068303;28;20390;-79
2023/06/09 13:58:15;;;;;;;;;;;;;;;;;;5067952;28;19913;-76
2023/06/09 14:00:40;;;;;;;;;;;;;;;;;;5067384;28;19916;-75
2023/06/09 14:03:05;;;;;;;;;;;;;;;;;;5048278;28;19978;-76
2023/06/09 14:05:30;;;;;;;;;;;;;;;;;;5067706;28;20590;-78
2023/06/09 14:07:56;;;;;;;;;;;;;;;;;;5067525;28;19908;-79
2023/06/09 14:10:21;;;;;;;;;;;;;;;;;;5068292;28;20057;-78
2023/06/09 14:12:50;;;;;;;;;;;;;;;;;;5071925;28;19920;-78
2023/06/09 14:15:16;;;;;;;;;;;;;;;;;;5065266;28;19927;-79
2023/06/09 14:17:49;;;;;;;;;;;;;;;;;;5058632;28;20346;-79
2023/06/09 14:20:14;;;;;;;;;;;;;;;;;;5059493;28;19938;-78
2023/06/09 14:22:40;;;;;;;;;;;;;;;;;;5062574;28;20369;-78
2023/06/09 14:25:05;;;;;;;;;;;;;;;;;;5069074;28;19913;-77
2023/06/09 14:27:30;;;;;;;;;;;;;;;;;;5068570;28;20291;-78
2023/06/09 14:29:55;;;;;;;;;;;;;;;;;;5068983;28;19920;-76
2023/06/09 14:32:21;;;;;;;;;;;;;;;;;;5068791;28;19926;-74
2023/06/09 14:34:46;;;;;;;;;;;;;;;;;;5068675;28;19909;-78
2023/06/09 14:37:12;;;;;;;;;;;;;;;;;;5069220;28;19916;-77
2023/06/09 14:39:37;;;;;;;;;;;;;;;;;;5075234;28;19916;-77
2023/06/09 14:42:02;;;;;;;;;;;;;;;;;;5075728;28;19916;-78
2023/06/09 14:44:28;;;;;;;;;;;;;;;;;;5076147;28;20390;-78
2023/06/09 14:46:53;;;;;;;;;;;;;;;;;;5075415;28;19920;-78
2023/06/09 14:49:18;;;;;;;;;;;;;;;;;;5075795;28;20013;-79
2023/06/09 14:51:44;;;;;;;;;;;;;;;;;;5075086;28;19969;-76
2023/06/09 14:54:09;;;;;;;;;;;;;;;;;;5075199;28;19912;-78
2023/06/09 14:56:34;;;;;;;;;;;;;;;;;;5075589;28;19908;-77
2023/06/09 14:59:03;;;;;;;;;;;;;;;;;;5075802;28;20014;-77
2023/06/09 15:01:29;;;;;;;;;;;;;;;;;;5075289;28;19920;-78
2023/06/09 15:03:55;;;;;;;;;;;;;;;;;;5075352;28;20434;-79
2023/06/09 15:06:20;;;;;;;;;;;;;;;;;;5074610;28;19912;-75
2023/06/09 15:08:47;;;;;;;;;;;;;;;;;;5075296;28;20351;-78
2023/06/09 15:11:12;;;;;;;;;;;;;;;;;;5075306;28;19917;-79
2023/06/09 15:13:38;;;;;;;;;;;;;;;;;;5075547;28;20437;-78
2023/06/09 15:16:03;;;;;;;;;;;;;;;;;;5074732;28;20331;-75
2023/06/09 15:18:28;;;;;;;;;;;;;;;;;;5075268;28;19921;-78
2023/06/09 15:20:54;;;;;;;;;;;;;;;;;;5074197;28;19934;-77
2023/06/09 15:23:19;;;;;;;;;;;;;;;;;;5073288;28;19978;-78
2023/06/09 15:25:44;;;;;;;;;;;;;;;;;;5073006;28;19917;-78
2023/06/09 15:28:10;;;;;;;;;;;;;;;;;;5054878;28;20348;-77
2023/06/09 15:30:35;;;;;;;;;;;;;;;;;;5072816;28;20042;-77
2023/06/09 15:33:01;;;;;;;;;;;;;;;;;;5072944;28;20279;-78
2023/06/09 15:35:26;;;;;;;;;;;;;;;;;;5073549;28;19912;-77
2023/06/09 15:37:54;;;;;;;;;;;;;;;;;;5073314;28;19920;-79
2023/06/09 15:40:20;;;;;;;;;;;;;;;;;;5054894;28;20577;-76
2023/06/09 15:42:45;;;;;;;;;;;;;;;;;;5073084;28;20013;-78
2023/06/09 15:45:10;;;;;;;;;;;;;;;;;;5073642;28;20481;-79
2023/06/09 15:47:36;;;;;;;;;;;;;;;;;;5072893;28;19916;-77
2023/06/09 15:50:01;;;;;;;;;;;;;;;;;;5070843;28;19927;-74
2023/06/09 15:52:26;;;;;;;;;;;;;;;;;;5069520;28;19917;-78
2023/06/09 15:54:51;;;;;;;;;;;;;;;;;;5069459;28;19908;-80
2023/06/09 15:57:17;;;;;;;;;;;;;;;;;;5069462;28;19912;-79
2023/06/09 15:59:42;;;;;;;;;;;;;;;;;;5067999;28;20295;-78
2023/06/09 16:02:07;;;;;;;;;;;;;;;;;;5048937;28;19962;-78
2023/06/09 16:04:33;;;;;;;;;;;;;;;;;;5069093;28;19934;-79
2023/06/09 16:06:59;;;;;;;;;;;;;;;;;;5069530;28;20690;-79
2023/06/09 16:09:24;;;;;;;;;;;;;;;;;;5069406;28;20007;-79
2023/06/09 16:11:49;;;;;;;;;;;;;;;;;;5069487;28;20019;-77
2023/06/09 16:14:15;;;;;;;;;;;;;;;;;;5068638;28;19913;-76
2023/06/09 16:16:40;;;;;;;;;;;;;;;;;;5069147;28;19908;-79
2023/06/09 16:19:05;;;;;;;;;;;;;;;;;;5069247;28;19923;-79
2023/06/09 16:21:30;;;;;;;;;;;;;;;;;;5070843;28;20407;-76
2023/06/09 16:23:56;;;;;;;;;;;;;;;;;;5063793;28;19962;-79
2023/06/09 16:26:26;;;;;;;;;;;;;;;;;;5048678;28;19917;-79
2023/06/09 16:28:51;;;;;;;;;;;;;;;;;;5070518;28;20280;-80
2023/06/09 16:31:17;;;;;;;;;;;;;;;;;;5078303;28;19926;-78
2023/06/09 16:33:42;;;;;;;;;;;;;;;;;;5068333;28;19920;-79